Time;durP1;ratioP1;P1;durP2;ratioP2;P2;SDS_P1;SDS_P2;PMS_P1;PMS_P2;Temp;Humidity;BMP_temperature;BMP_pressure;BME280_temperature;BME280_humidity;BME280_pressure;Samples;Min_cycle;Max_cycle;Signal;HPM_P1;HPM_P2
2024/01/02 00:01:29;;;;;;;13.10;2.97;;;;;;;;;;4996743;28;93437;-65
2024/01/02 00:03:56;;;;;;;12.40;2.53;;;;;;;;;;5000822;28;92612;-65
2024/01/02 00:06:22;;;;;;;16.85;2.75;;;;;;;;;;5002524;28;93119;-65
2024/01/02 00:08:49;;;;;;;19.40;3.30;;;;;;;;;;5005967;28;93482;-66
2024/01/02 00:11:15;;;;;;;13.32;3.05;;;;;;;;;;4998046;28;92608;-66
2024/01/02 00:13:41;;;;;;;17.88;2.88;;;;;;;;;;4998332;28;93673;-65
2024/01/02 00:16:08;;;;;;;20.85;2.95;;;;;;;;;;5004249;28;93065;-66
2024/01/02 00:18:34;;;;;;;17.20;3.15;;;;;;;;;;5003964;28;92506;-66
2024/01/02 00:21:02;;;;;;;13.10;2.53;;;;;;;;;;5002338;28;94466;-66
2024/01/02 00:23:29;;;;;;;17.20;3.10;;;;;;;;;;5000459;28;94895;-67
2024/01/02 00:25:56;;;;;;;18.05;3.03;;;;;;;;;;4998897;28;95593;-66
2024/01/02 00:28:22;;;;;;;14.73;2.78;;;;;;;;;;5003079;28;93516;-66
2024/01/02 00:30:48;;;;;;;12.07;2.63;;;;;;;;;;5005978;28;92846;-66
2024/01/02 00:33:15;;;;;;;15.57;2.75;;;;;;;;;;4999408;28;93197;-66
2024/01/02 00:35:41;;;;;;;13.90;2.55;;;;;;;;;;5004244;28;93526;-66
2024/01/02 00:38:08;;;;;;;17.50;3.15;;;;;;;;;;5005011;28;92922;-66
2024/01/02 00:40:35;;;;;;;14.38;3.03;;;;;;;;;;5001246;28;92745;-66
2024/01/02 00:43:01;;;;;;;27.40;3.85;;;;;;;;;;4999428;28;92598;-66
2024/01/02 00:45:28;;;;;;;19.17;2.28;;;;;;;;;;4998730;28;93204;-66
2024/01/02 00:47:54;;;;;;;16.75;2.85;;;;;;;;;;5003702;28;95831;-66
2024/01/02 00:50:21;;;;;;;14.00;2.55;;;;;;;;;;5000690;28;92446;-66
2024/01/02 00:52:48;;;;;;;17.23;3.00;;;;;;;;;;5001135;28;93178;-66
2024/01/02 00:55:15;;;;;;;10.02;2.20;;;;;;;;;;5000077;28;93629;-66
2024/01/02 00:57:41;;;;;;;38.80;7.18;;;;;;;;;;5001160;28;92595;-66
2024/01/02 01:00:08;;;;;;;14.38;2.67;;;;;;;;;;5001659;28;93509;-66
2024/01/02 01:02:34;;;;;;;14.52;2.65;;;;;;;;;;5002140;28;92529;-66
2024/01/02 01:05:01;;;;;;;13.35;2.60;;;;;;;;;;5003918;28;93120;-65
2024/01/02 01:07:27;;;;;;;12.38;3.05;;;;;;;;;;4999346;28;93361;-67
2024/01/02 01:09:54;;;;;;;15.00;2.58;;;;;;;;;;5004640;28;92853;-66
2024/01/02 01:12:20;;;;;;;17.17;2.78;;;;;;;;;;4999319;28;96780;-66
2024/01/02 01:14:46;;;;;;;19.42;2.70;;;;;;;;;;5003505;28;93443;-66
2024/01/02 01:17:13;;;;;;;13.82;2.30;;;;;;;;;;5000274;28;92484;-66
2024/01/02 01:19:39;;;;;;;13.90;2.53;;;;;;;;;;5005606;28;94314;-66
2024/01/02 01:22:05;;;;;;;16.27;3.47;;;;;;;;;;5004257;28;92782;-66
2024/01/02 01:24:32;;;;;;;10.38;2.28;;;;;;;;;;5003266;28;93188;-66
2024/01/02 01:26:59;;;;;;;11.70;1.90;;;;;;;;;;5001426;28;93439;-66
2024/01/02 01:29:25;;;;;;;17.45;2.33;;;;;;;;;;5003522;28;91939;-66
2024/01/02 01:31:51;;;;;;;14.63;1.48;;;;;;;;;;5003932;28;92724;-66
2024/01/02 01:34:18;;;;;;;7.72;1.60;;;;;;;;;;5000272;28;93841;-66
2024/01/02 01:36:44;;;;;;;11.32;1.60;;;;;;;;;;4983937;28;97975;-66
2024/01/02 01:39:11;;;;;;;10.10;1.98;;;;;;;;;;5001641;28;95533;-67
2024/01/02 01:41:37;;;;;;;10.77;2.00;;;;;;;;;;5002776;28;93388;-66
2024/01/02 01:44:03;;;;;;;5.50;1.70;;;;;;;;;;5003005;28;93126;-65
2024/01/02 01:46:36;;;;;;;7.38;1.48;;;;;;;;;;5002956;28;94564;-66
2024/01/02 01:49:05;;;;;;;7.40;1.48;;;;;;;;;;5001498;28;92515;-66
2024/01/02 01:51:32;;;;;;;10.00;1.55;;;;;;;;;;5003931;28;94894;-65
2024/01/02 01:54:00;;;;;;;12.73;1.77;;;;;;;;;;5000771;28;92748;-66
2024/01/02 01:56:26;;;;;;;6.70;1.50;;;;;;;;;;4994072;28;92403;-65
2024/01/02 01:58:53;;;;;;;8.43;1.30;;;;;;;;;;4998532;28;93060;-66
2024/01/02 02:01:21;;;;;;;8.32;1.42;;;;;;;;;;4993355;28;96199;-65
2024/01/02 02:03:48;;;;;;;29.35;8.68;;;;;;;;;;5006541;28;92517;-66
2024/01/02 02:06:15;;;;;;;9.52;1.55;;;;;;;;;;5000373;28;93456;-65
2024/01/02 02:08:42;;;;;;;4.68;1.02;;;;;;;;;;5000731;28;92609;-65
2024/01/02 02:11:09;;;;;;;3.47;1.17;;;;;;;;;;5000874;28;93683;-66
2024/01/02 02:13:35;;;;;;;7.00;1.30;;;;;;;;;;4997006;28;93635;-66
2024/01/02 02:16:02;;;;;;;4.68;0.93;;;;;;;;;;5004250;28;92981;-66
2024/01/02 02:18:28;;;;;;;3.40;1.30;;;;;;;;;;5004500;28;93102;-65
2024/01/02 02:20:55;;;;;;;8.40;1.42;;;;;;;;;;5003259;28;92736;-66
2024/01/02 02:23:21;;;;;;;9.18;1.13;;;;;;;;;;5001533;28;92475;-66
2024/01/02 02:25:48;;;;;;;7.10;1.00;;;;;;;;;;5004422;28;95087;-66
2024/01/02 02:28:14;;;;;;;4.28;0.98;;;;;;;;;;5001235;28;92604;-66
2024/01/02 02:30:40;;;;;;;3.83;1.05;;;;;;;;;;4997356;28;93149;-66
2024/01/02 02:33:07;;;;;;;7.43;1.00;;;;;;;;;;4996633;28;94913;-65
2024/01/02 02:35:33;;;;;;;4.20;1.10;;;;;;;;;;4998769;28;92581;-65
2024/01/02 02:38:00;;;;;;;5.75;1.00;;;;;;;;;;5000272;28;93288;-66
2024/01/02 02:40:27;;;;;;;12.13;1.38;;;;;;;;;;5001064;28;93659;-73
2024/01/02 02:42:53;;;;;;;5.65;1.20;;;;;;;;;;4993112;28;91697;-73
2024/01/02 02:45:19;;;;;;;5.63;0.90;;;;;;;;;;4999536;28;92506;-73
2024/01/02 02:47:46;;;;;;;5.53;0.85;;;;;;;;;;5005447;28;93401;-73
2024/01/02 02:50:12;;;;;;;1.63;0.90;;;;;;;;;;5000697;28;94918;-74
2024/01/02 02:52:39;;;;;;;6.63;1.00;;;;;;;;;;4991285;28;96079;-74
2024/01/02 02:55:06;;;;;;;3.83;0.80;;;;;;;;;;4996892;28;93575;-73
2024/01/02 02:57:32;;;;;;;10.43;0.90;;;;;;;;;;5005263;28;93139;-73
2024/01/02 02:59:58;;;;;;;3.35;1.00;;;;;;;;;;4998317;28;93417;-74
2024/01/02 03:02:28;;;;;;;1.85;0.73;;;;;;;;;;5004316;28;92617;-73
2024/01/02 03:04:55;;;;;;;2.78;0.80;;;;;;;;;;5000330;28;93149;-73
2024/01/02 03:07:21;;;;;;;5.40;0.82;;;;;;;;;;5006696;28;92970;-74
2024/01/02 03:09:48;;;;;;;5.60;0.75;;;;;;;;;;5006585;28;93712;-73
2024/01/02 03:12:14;;;;;;;2.75;0.80;;;;;;;;;;4999234;28;93365;-72
2024/01/02 03:14:40;;;;;;;3.83;0.68;;;;;;;;;;4999983;28;95090;-72
2024/01/02 03:17:07;;;;;;;1.00;0.47;;;;;;;;;;5001043;28;96590;-73
2024/01/02 03:19:33;;;;;;;2.58;0.90;;;;;;;;;;5006548;28;93761;-73
2024/01/02 03:21:59;;;;;;;1.98;0.80;;;;;;;;;;4998649;28;92571;-73
2024/01/02 03:24:26;;;;;;;1.75;0.70;;;;;;;;;;5006089;28;94080;-73
2024/01/02 03:26:53;;;;;;;1.80;0.50;;;;;;;;;;5002964;28;93395;-72
2024/01/02 03:29:19;;;;;;;2.10;0.43;;;;;;;;;;5009325;28;92536;-73
2024/01/02 03:31:45;;;;;;;2.35;0.85;;;;;;;;;;5001523;28;92785;-73
2024/01/02 03:34:12;;;;;;;1.95;0.60;;;;;;;;;;4997479;28;92460;-73
2024/01/02 03:36:38;;;;;;;1.17;0.68;;;;;;;;;;5006787;28;93858;-72
2024/01/02 03:39:05;;;;;;;0.40;0.40;;;;;;;;;;4995079;28;96131;-73
2024/01/02 03:41:31;;;;;;;1.67;0.65;;;;;;;;;;5003724;28;92449;-72
2024/01/02 03:43:58;;;;;;;0.85;0.40;;;;;;;;;;5003381;28;93257;-73
2024/01/02 03:46:24;;;;;;;0.73;0.32;;;;;;;;;;5007343;28;94537;-73
2024/01/02 03:48:50;;;;;;;0.40;0.40;;;;;;;;;;4999408;28;92537;-72
2024/01/02 03:51:17;;;;;;;0.60;0.60;;;;;;;;;;4999547;28;94092;-64
2024/01/02 03:53:43;;;;;;;0.82;0.50;;;;;;;;;;5004361;28;92473;-64
2024/01/02 03:56:15;;;;;;;1.05;0.40;;;;;;;;;;5003650;28;93229;-66
2024/01/02 03:58:42;;;;;;;0.73;0.30;;;;;;;;;;5002463;28;93720;-64
2024/01/02 04:01:08;;;;;;;0.82;0.47;;;;;;;;;;5033588;27;92943;-64
2024/01/02 04:03:34;;;;;;;1.73;0.47;;;;;;;;;;4999824;28;94876;-65
2024/01/02 04:06:01;;;;;;;0.57;0.50;;;;;;;;;;5004874;28;93587;-65
2024/01/02 04:08:27;;;;;;;0.68;0.50;;;;;;;;;;5001186;28;92581;-64
2024/01/02 04:10:54;;;;;;;6.43;3.88;;;;;;;;;;4998474;28;93293;-64
2024/01/02 04:13:21;;;;;;;0.30;0.30;;;;;;;;;;5006913;28;93472;-64
2024/01/02 04:15:48;;;;;;;0.73;0.60;;;;;;;;;;4998331;28;92498;-64
2024/01/02 04:18:14;;;;;;;1.95;1.08;;;;;;;;;;5004087;28;93294;-64
2024/01/02 04:20:41;;;;;;;0.82;0.40;;;;;;;;;;5007140;28;91698;-64
2024/01/02 04:23:08;;;;;;;1.40;0.45;;;;;;;;;;5003948;28;92441;-64
2024/01/02 04:25:34;;;;;;;0.65;0.47;;;;;;;;;;5000947;28;93194;-65
2024/01/02 04:28:00;;;;;;;0.52;0.50;;;;;;;;;;4997461;28;97823;-65
2024/01/02 04:30:27;;;;;;;4.65;0.57;;;;;;;;;;4998386;28;98910;-65
2024/01/02 04:32:53;;;;;;;0.30;0.30;;;;;;;;;;5001309;28;93447;-65
2024/01/02 04:35:20;;;;;;;0.22;0.22;;;;;;;;;;5005204;28;92488;-65
2024/01/02 04:37:46;;;;;;;0.50;0.50;;;;;;;;;;5003074;28;94521;-64
2024/01/02 04:40:13;;;;;;;0.43;0.43;;;;;;;;;;5004567;28;92870;-64
2024/01/02 04:42:39;;;;;;;0.93;0.30;;;;;;;;;;5001896;28;93177;-64
2024/01/02 04:45:06;;;;;;;0.85;0.30;;;;;;;;;;5002625;28;92718;-64
2024/01/02 04:47:33;;;;;;;0.43;0.43;;;;;;;;;;4998586;28;92384;-64
2024/01/02 04:50:00;;;;;;;0.47;0.47;;;;;;;;;;5001801;28;94469;-64
2024/01/02 04:52:26;;;;;;;0.82;0.50;;;;;;;;;;5001680;28;95728;-65
2024/01/02 04:54:53;;;;;;;1.00;0.60;;;;;;;;;;5001458;28;93043;-65
2024/01/02 04:57:19;;;;;;;0.73;0.45;;;;;;;;;;5001189;28;93144;-65
2024/01/02 04:59:48;;;;;;;0.73;0.57;;;;;;;;;;5000253;28;92584;-64
2024/01/02 05:02:14;;;;;;;0.30;0.30;;;;;;;;;;5002788;28;93125;-65
2024/01/02 05:04:41;;;;;;;0.70;0.50;;;;;;;;;;4998777;28;93360;-65
2024/01/02 05:07:07;;;;;;;0.40;0.40;;;;;;;;;;5001039;28;92738;-65
2024/01/02 05:09:34;;;;;;;1.70;0.70;;;;;;;;;;5002498;28;93560;-65
2024/01/02 05:12:00;;;;;;;0.60;0.60;;;;;;;;;;5000685;28;94802;-65
2024/01/02 05:14:27;;;;;;;0.57;0.55;;;;;;;;;;4998038;28;92555;-64
2024/01/02 05:16:54;;;;;;;0.60;0.60;;;;;;;;;;5004684;28;94773;-65
2024/01/02 05:19:20;;;;;;;0.57;0.57;;;;;;;;;;5002587;28;92664;-64
2024/01/02 05:21:47;;;;;;;0.73;0.63;;;;;;;;;;5000828;28;93149;-64
2024/01/02 05:24:13;;;;;;;0.75;0.75;;;;;;;;;;4998135;28;94379;-64
2024/01/02 05:26:39;;;;;;;2.35;0.68;;;;;;;;;;4993234;28;92637;-65
2024/01/02 05:29:06;;;;;;;0.82;0.82;;;;;;;;;;5000240;28;93132;-64
2024/01/02 05:31:32;;;;;;;0.80;0.80;;;;;;;;;;4997057;28;93669;-64
2024/01/02 05:33:59;;;;;;;0.80;0.80;;;;;;;;;;4993494;28;92000;-64
2024/01/02 05:36:25;;;;;;;0.80;0.80;;;;;;;;;;5003680;28;93589;-65
2024/01/02 05:38:51;;;;;;;0.75;0.75;;;;;;;;;;5005395;28;93420;-65
2024/01/02 05:41:18;;;;;;;0.80;0.80;;;;;;;;;;5002269;28;95456;-64
2024/01/02 05:43:44;;;;;;;0.82;0.82;;;;;;;;;;4994112;28;93393;-64
2024/01/02 05:46:10;;;;;;;2.15;1.20;;;;;;;;;;4996835;28;92630;-64
2024/01/02 05:48:37;;;;;;;1.27;1.27;;;;;;;;;;5000238;28;93480;-64
2024/01/02 05:51:04;;;;;;;1.70;1.60;;;;;;;;;;5000407;28;93422;-64
2024/01/02 05:53:30;;;;;;;1.85;1.75;;;;;;;;;;4997459;28;92491;-64
2024/01/02 05:55:57;;;;;;;1.83;1.73;;;;;;;;;;4999526;28;93118;-64
2024/01/02 05:58:23;;;;;;;1.73;1.63;;;;;;;;;;5001037;28;92870;-64
2024/01/02 06:00:50;;;;;;;1.60;1.50;;;;;;;;;;5004468;28;92479;-64
2024/01/02 06:03:16;;;;;;;1.77;1.67;;;;;;;;;;5004672;28;93440;-65
2024/01/02 06:05:43;;;;;;;2.08;1.88;;;;;;;;;;4997391;28;95154;-64
2024/01/02 06:08:09;;;;;;;2.05;1.95;;;;;;;;;;4998718;28;96299;-64
2024/01/02 06:10:38;;;;;;;2.47;2.28;;;;;;;;;;5000732;28;94197;-64
2024/01/02 06:13:05;;;;;;;3.90;2.40;;;;;;;;;;5000608;28;92541;-65
2024/01/02 06:15:32;;;;;;;2.40;2.25;;;;;;;;;;5000439;28;93137;-65
2024/01/02 06:17:58;;;;;;;5.00;2.70;;;;;;;;;;5006314;28;93266;-64
2024/01/02 06:20:25;;;;;;;3.15;2.85;;;;;;;;;;5002272;28;92757;-64
2024/01/02 06:22:51;;;;;;;7.85;3.72;;;;;;;;;;4999315;28;93130;-65
2024/01/02 06:25:18;;;;;;;7.43;4.20;;;;;;;;;;5000495;28;92397;-64
2024/01/02 06:27:44;;;;;;;8.68;3.72;;;;;;;;;;5000308;28;93066;-65
2024/01/02 06:30:10;;;;;;;15.98;4.22;;;;;;;;;;4999937;28;95796;-64
2024/01/02 06:32:37;;;;;;;14.25;4.18;;;;;;;;;;4999031;28;93668;-64
2024/01/02 06:35:04;;;;;;;16.55;4.47;;;;;;;;;;4997735;28;93303;-65
2024/01/02 06:37:30;;;;;;;19.15;4.30;;;;;;;;;;4998569;28;93347;-64
2024/01/02 06:39:57;;;;;;;10.32;3.97;;;;;;;;;;4996229;28;92650;-64
2024/01/02 06:42:23;;;;;;;21.58;4.40;;;;;;;;;;4997077;28;93154;-64
2024/01/02 06:44:50;;;;;;;21.75;4.35;;;;;;;;;;5003615;28;93939;-64
2024/01/02 06:47:16;;;;;;;18.63;4.00;;;;;;;;;;4999161;28;93103;-64
2024/01/02 06:49:42;;;;;;;24.60;5.65;;;;;;;;;;4998119;28;94698;-66
2024/01/02 06:52:09;;;;;;;22.00;4.15;;;;;;;;;;5001797;28;92497;-64
2024/01/02 06:54:35;;;;;;;20.65;3.85;;;;;;;;;;4994806;28;94910;-65
2024/01/02 06:57:02;;;;;;;25.08;3.75;;;;;;;;;;5004151;28;94465;-65
2024/01/02 06:59:29;;;;;;;29.58;4.20;;;;;;;;;;4994859;28;94145;-65
2024/01/02 07:01:56;;;;;;;35.88;4.93;;;;;;;;;;4997949;28;92640;-64
2024/01/02 07:04:24;;;;;;;36.08;4.97;;;;;;;;;;4993247;28;92428;-65
2024/01/02 07:06:51;;;;;;;28.60;4.75;;;;;;;;;;5000709;28;92498;-64
2024/01/02 07:09:17;;;;;;;29.15;4.43;;;;;;;;;;5003276;28;93569;-64
2024/01/02 07:11:43;;;;;;;35.03;4.22;;;;;;;;;;4996022;28;92180;-64
2024/01/02 07:14:10;;;;;;;32.00;4.95;;;;;;;;;;4999014;28;92580;-65
2024/01/02 07:16:37;;;;;;;29.27;4.30;;;;;;;;;;4999978;28;93446;-65
2024/01/02 07:19:03;;;;;;;40.65;4.38;;;;;;;;;;4998551;28;94767;-65
2024/01/02 07:21:30;;;;;;;21.33;3.35;;;;;;;;;;5000200;28;95641;-64
2024/01/02 07:23:56;;;;;;;41.80;4.65;;;;;;;;;;4999358;28;93404;-64
2024/01/02 07:26:22;;;;;;;40.50;5.15;;;;;;;;;;5004580;28;92451;-64
2024/01/02 07:28:49;;;;;;;34.15;3.88;;;;;;;;;;5000719;28;94211;-64
2024/01/02 07:31:15;;;;;;;43.28;5.28;;;;;;;;;;5003341;28;93126;-65
2024/01/02 07:33:41;;;;;;;35.08;4.75;;;;;;;;;;4999087;28;93140;-64
2024/01/02 07:36:08;;;;;;;33.75;4.85;;;;;;;;;;5001016;28;94046;-64
2024/01/02 07:38:34;;;;;;;30.10;4.57;;;;;;;;;;4997718;28;92581;-65
2024/01/02 07:41:01;;;;;;;37.80;6.30;;;;;;;;;;4997291;28;94580;-65
2024/01/02 07:43:30;;;;;;;45.92;9.05;;;;;;;;;;4994067;28;97411;-65
2024/01/02 07:45:57;;;;;;;44.72;5.22;;;;;;;;;;4999197;28;92411;-64
2024/01/02 07:48:23;;;;;;;30.75;4.22;;;;;;;;;;5007876;28;93035;-64
2024/01/02 07:50:50;;;;;;;37.13;5.10;;;;;;;;;;5004549;28;92460;-63
2024/01/02 07:53:19;;;;;;;33.75;4.60;;;;;;;;;;5004226;28;93224;-63
2024/01/02 07:55:47;;;;;;;34.10;4.30;;;;;;;;;;5006479;28;93252;-64
2024/01/02 07:58:14;;;;;;;37.38;5.93;;;;;;;;;;4993995;28;95521;-64
2024/01/02 08:00:40;;;;;;;41.67;5.85;;;;;;;;;;5005882;28;93106;-63
2024/01/02 08:03:06;;;;;;;40.78;4.90;;;;;;;;;;5002069;28;93246;-64
2024/01/02 08:05:34;;;;;;;34.08;5.68;;;;;;;;;;5001739;28;92719;-65
2024/01/02 08:08:02;;;;;;;39.00;5.43;;;;;;;;;;5003030;28;95000;-63
2024/01/02 08:10:29;;;;;;;39.85;5.25;;;;;;;;;;5006365;28;95112;-65
2024/01/02 08:12:55;;;;;;;43.55;5.80;;;;;;;;;;5002837;28;93168;-63
2024/01/02 08:15:21;;;;;;;44.75;5.07;;;;;;;;;;5002534;28;93421;-66
2024/01/02 08:18:06;;;;;;;42.90;6.03;;;;;;;;;;5002146;28;92697;-63
2024/01/02 08:20:33;;;;;;;35.85;6.57;;;;;;;;;;5005022;28;93229;-63
2024/01/02 08:22:59;;;;;;;48.70;6.30;;;;;;;;;;5004272;28;94690;-63
2024/01/02 08:25:26;;;;;;;39.10;5.28;;;;;;;;;;5001822;28;91963;-63
2024/01/02 08:27:52;;;;;;;42.40;5.60;;;;;;;;;;5005408;28;92455;-62
2024/01/02 08:30:19;;;;;;;37.92;5.40;;;;;;;;;;5005907;28;93699;-63
2024/01/02 08:32:45;;;;;;;52.58;6.82;;;;;;;;;;5006479;28;94835;-69
2024/01/02 08:35:12;;;;;;;41.00;6.78;;;;;;;;;;4997608;28;93464;-71
2024/01/02 08:37:40;;;;;;;49.42;5.97;;;;;;;;;;4999219;28;92423;-72
2024/01/02 08:40:06;;;;;;;47.58;6.05;;;;;;;;;;4998163;28;94210;-72
2024/01/02 08:42:33;;;;;;;47.42;5.57;;;;;;;;;;5001662;28;93389;-72
2024/01/02 08:44:59;;;;;;;43.90;6.05;;;;;;;;;;5000794;28;92644;-74
2024/01/02 08:47:26;;;;;;;46.03;5.68;;;;;;;;;;5002800;28;93064;-73
2024/01/02 08:49:52;;;;;;;41.67;6.35;;;;;;;;;;5002550;28;92684;-73
2024/01/02 08:52:18;;;;;;;44.70;5.72;;;;;;;;;;5001569;28;92526;-70
2024/01/02 08:54:49;;;;;;;46.10;5.97;;;;;;;;;;5002465;28;92441;-72
2024/01/02 08:57:15;;;;;;;48.15;6.47;;;;;;;;;;4995016;28;94927;-72
2024/01/02 08:59:42;;;;;;;49.10;7.78;;;;;;;;;;5003816;28;95557;-72
2024/01/02 09:02:09;;;;;;;49.08;6.05;;;;;;;;;;4998873;28;92571;-73
2024/01/02 09:04:35;;;;;;;49.70;7.38;;;;;;;;;;4993013;28;93964;-71
2024/01/02 09:07:02;;;;;;;44.13;5.85;;;;;;;;;;5038152;27;93525;-72
2024/01/02 09:09:28;;;;;;;44.78;6.47;;;;;;;;;;5004497;28;93761;-73
2024/01/02 09:11:55;;;;;;;43.17;6.15;;;;;;;;;;5002073;28;92513;-71
2024/01/02 09:14:21;;;;;;;42.00;5.63;;;;;;;;;;5006147;28;93212;-72
2024/01/02 09:16:49;;;;;;;34.38;6.30;;;;;;;;;;5002128;28;92592;-71
2024/01/02 09:19:15;;;;;;;44.90;5.45;;;;;;;;;;4997516;28;93735;-70
2024/01/02 09:21:43;;;;;;;39.53;6.47;;;;;;;;;;4992166;28;96358;-69
2024/01/02 09:24:10;;;;;;;46.13;6.80;;;;;;;;;;5000218;28;92407;-71
2024/01/02 09:26:39;;;;;;;49.75;6.40;;;;;;;;;;4998149;28;93342;-68
2024/01/02 09:29:05;;;;;;;41.65;6.50;;;;;;;;;;5001662;28;93916;-69
2024/01/02 09:31:32;;;;;;;39.30;6.00;;;;;;;;;;5002398;28;93081;-68
2024/01/02 09:33:58;;;;;;;32.00;4.95;;;;;;;;;;4991319;28;93421;-70
2024/01/02 09:36:29;;;;;;;40.28;5.50;;;;;;;;;;5003521;28;92522;-70
2024/01/02 09:38:56;;;;;;;40.53;5.72;;;;;;;;;;4999084;28;93504;-70
2024/01/02 09:41:41;;;;;;;58.38;8.55;;;;;;;;;;5002610;28;93706;-71
2024/01/02 09:44:11;;;;;;;50.35;7.40;;;;;;;;;;5001672;28;92474;-66
2024/01/02 09:46:56;;;;;;;51.53;6.78;;;;;;;;;;5000204;28;94773;-66
2024/01/02 09:49:25;;;;;;;49.47;5.82;;;;;;;;;;4997539;28;93409;-64
2024/01/02 09:52:03;;;;;;;47.25;7.25;;;;;;;;;;5000542;28;92535;-64
2024/01/02 09:54:50;;;;;;;49.45;6.55;;;;;;;;;;4999938;28;93600;-66
2024/01/02 09:57:23;;;;;;;58.30;7.32;;;;;;;;;;4998287;28;93781;-66
2024/01/02 10:00:02;;;;;;;57.05;7.60;;;;;;;;;;5006457;28;92507;-65
2024/01/02 10:02:40;;;;;;;53.35;7.40;;;;;;;;;;4997055;28;93830;-65
2024/01/02 10:05:26;;;;;;;57.97;7.28;;;;;;;;;;4998787;28;91980;-65
2024/01/02 10:07:59;;;;;;;56.25;7.22;;;;;;;;;;5000500;28;92613;-66
2024/01/02 10:10:38;;;;;;;39.92;6.05;;;;;;;;;;4990472;28;93261;-66
2024/01/02 10:13:20;;;;;;;52.72;6.68;;;;;;;;;;4999958;28;94950;-66
2024/01/02 10:15:52;;;;;;;50.58;7.03;;;;;;;;;;4997262;28;97086;-66
2024/01/02 10:18:42;;;;;;;57.53;6.68;;;;;;;;;;4999165;28;93536;-66
2024/01/02 10:21:20;;;;;;;35.47;6.40;;;;;;;;;;4991342;28;92527;-67
2024/01/02 10:23:53;;;;;;;35.53;6.22;;;;;;;;;;5000694;28;93254;-66
2024/01/02 10:26:24;;;;;;;40.38;6.30;;;;;;;;;;5001756;28;92583;-66
2024/01/02 10:28:55;;;;;;;39.45;6.25;;;;;;;;;;5003954;28;93171;-66
2024/01/02 10:31:31;;;;;;;36.20;6.35;;;;;;;;;;5000855;28;92670;-66
2024/01/02 10:34:04;;;;;;;33.42;6.45;;;;;;;;;;4998831;28;92776;-66
2024/01/02 10:36:33;;;;;;;34.08;6.65;;;;;;;;;;5000804;28;95818;-66
2024/01/02 10:39:21;;;;;;;30.27;4.83;;;;;;;;;;4999181;28;95828;-66
2024/01/02 10:41:51;;;;;;;27.77;4.50;;;;;;;;;;4996895;28;94161;-67
2024/01/02 10:44:34;;;;;;;30.33;4.82;;;;;;;;;;5003754;28;93479;-66
2024/01/02 10:47:20;;;;;;;24.20;4.20;;;;;;;;;;5002967;28;93478;-65
2024/01/02 10:49:51;;;;;;;22.08;4.03;;;;;;;;;;4997711;28;93274;-65
2024/01/02 10:52:21;;;;;;;34.75;4.88;;;;;;;;;;5000120;28;92391;-66
2024/01/02 10:54:50;;;;;;;22.30;3.75;;;;;;;;;;4998205;28;92641;-72
2024/01/02 10:57:21;;;;;;;23.15;4.85;;;;;;;;;;5000908;28;93190;-72
2024/01/02 11:00:18;;;;;;;21.85;3.90;;;;;;;;;;5003582;28;93412;-71
2024/01/02 11:02:48;;;;;;;24.55;4.70;;;;;;;;;;4996388;28;92576;-72
2024/01/02 11:05:23;;;;;;;17.08;4.05;;;;;;;;;;4998459;28;95123;-71
2024/01/02 11:07:54;;;;;;;23.13;4.53;;;;;;;;;;4997704;28;93398;-70
2024/01/02 11:10:23;;;;;;;16.98;3.65;;;;;;;;;;5003600;28;92639;-71
2024/01/02 11:13:01;;;;;;;24.08;4.35;;;;;;;;;;4999991;28;93368;-70
2024/01/02 11:15:42;;;;;;;21.98;4.38;;;;;;;;;;4993881;28;93233;-72
2024/01/02 11:18:08;;;;;;;20.85;5.20;;;;;;;;;;4999348;28;93205;-72
2024/01/02 11:20:38;;;;;;;23.13;6.70;;;;;;;;;;5001471;28;96615;-71
2024/01/02 11:23:13;;;;;;;18.92;7.03;;;;;;;;;;5004373;28;91715;-70
2024/01/02 11:25:44;;;;;;;23.05;7.40;;;;;;;;;;4999045;28;92509;-72
2024/01/02 11:28:15;;;;;;;18.13;7.90;;;;;;;;;;4997182;28;93835;-71
2024/01/02 11:30:47;;;;;;;16.83;7.55;;;;;;;;;;5001730;28;95832;-73
2024/01/02 11:33:19;;;;;;;19.00;8.43;;;;;;;;;;4997953;28;92583;-71
2024/01/02 11:36:12;;;;;;;15.00;8.30;;;;;;;;;;4993557;28;93344;-71
2024/01/02 11:38:50;;;;;;;17.10;9.55;;;;;;;;;;4997539;28;93374;-72
2024/01/02 11:41:35;;;;;;;12.95;7.90;;;;;;;;;;4995853;28;93583;-73
2024/01/02 11:44:13;;;;;;;11.02;6.65;;;;;;;;;;5001192;28;93494;-71
2024/01/02 11:46:43;;;;;;;5.30;4.80;;;;;;;;;;4998810;28;93155;-74
2024/01/02 11:49:10;;;;;;;5.65;3.92;;;;;;;;;;4999963;28;92914;-73
2024/01/02 11:51:39;;;;;;;7.95;3.30;;;;;;;;;;5006373;28;92659;-74
2024/01/02 11:54:22;;;;;;;4.60;2.72;;;;;;;;;;5005055;28;93055;-72
2024/01/02 11:56:49;;;;;;;2.50;2.30;;;;;;;;;;5000119;28;96119;-74
2024/01/02 11:59:25;;;;;;;3.97;1.63;;;;;;;;;;5001084;28;95588;-72
2024/01/02 12:02:00;;;;;;;2.13;1.52;;;;;;;;;;4998972;28;93993;-72
2024/01/02 12:04:34;;;;;;;1.90;1.40;;;;;;;;;;5005836;28;92525;-67
2024/01/02 12:07:06;;;;;;;1.23;1.17;;;;;;;;;;4993412;28;93201;-68
2024/01/02 12:09:36;;;;;;;2.05;1.27;;;;;;;;;;4995249;28;95423;-67
2024/01/02 12:12:05;;;;;;;1.27;1.17;;;;;;;;;;5004241;28;92402;-69
2024/01/02 12:14:50;;;;;;;1.00;1.00;;;;;;;;;;5001258;28;94589;-67
2024/01/02 12:17:19;;;;;;;2.47;1.00;;;;;;;;;;5005108;28;93557;-67
2024/01/02 12:19:57;;;;;;;2.00;0.90;;;;;;;;;;4998973;28;92915;-67
2024/01/02 12:22:24;;;;;;;0.70;0.70;;;;;;;;;;5002973;28;95794;-66
2024/01/02 12:24:50;;;;;;;2.63;0.80;;;;;;;;;;4997666;28;93209;-67
2024/01/02 12:27:23;;;;;;;0.80;0.80;;;;;;;;;;4999620;28;93490;-67
2024/01/02 12:29:52;;;;;;;2.03;1.00;;;;;;;;;;5001600;28;93906;-67
2024/01/02 12:32:38;;;;;;;1.50;1.40;;;;;;;;;;4999544;28;92466;-66
2024/01/02 12:35:08;;;;;;;1.67;1.58;;;;;;;;;;4996861;28;95718;-68
2024/01/02 12:37:37;;;;;;;2.45;2.22;;;;;;;;;;4999565;28;93736;-66
2024/01/02 12:40:05;;;;;;;3.35;2.13;;;;;;;;;;5001238;28;92215;-66
2024/01/02 12:42:38;;;;;;;6.72;2.58;;;;;;;;;;5003682;28;93589;-68
2024/01/02 12:45:07;;;;;;;2.72;1.50;;;;;;;;;;4998585;28;92434;-71
2024/01/02 12:47:40;;;;;;;6.28;2.83;;;;;;;;;;4996148;28;96255;-70
2024/01/02 12:50:07;;;;;;;1.23;1.10;;;;;;;;;;5004230;28;93471;-69
2024/01/02 12:52:58;;;;;;;1.40;1.30;;;;;;;;;;5001746;28;92485;-66
2024/01/02 12:55:25;;;;;;;1.63;1.52;;;;;;;;;;4993329;28;93439;-70
2024/01/02 12:57:53;;;;;;;5.20;1.10;;;;;;;;;;4996580;28;93875;-68
2024/01/02 13:00:20;;;;;;;3.40;1.08;;;;;;;;;;5001910;28;92689;-67
2024/01/02 13:02:47;;;;;;;1.00;1.00;;;;;;;;;;5004823;28;93470;-68
2024/01/02 13:05:13;;;;;;;1.05;0.95;;;;;;;;;;5002619;28;91737;-67
2024/01/02 13:07:41;;;;;;;1.88;1.10;;;;;;;;;;5005341;28;93289;-68
2024/01/02 13:10:11;;;;;;;2.75;1.20;;;;;;;;;;4999233;28;92616;-66
2024/01/02 13:12:40;;;;;;;1.77;1.20;;;;;;;;;;5007539;28;95035;-68
2024/01/02 13:15:08;;;;;;;1.20;1.10;;;;;;;;;;5000794;28;95774;-66
2024/01/02 13:17:35;;;;;;;1.13;0.80;;;;;;;;;;5002533;28;94477;-67
2024/01/02 13:20:02;;;;;;;0.85;0.80;;;;;;;;;;5001715;28;92427;-67
2024/01/02 13:22:29;;;;;;;2.38;0.93;;;;;;;;;;5002199;28;93430;-67
2024/01/02 13:24:56;;;;;;;0.88;0.88;;;;;;;;;;5004544;28;93727;-67
2024/01/02 13:27:23;;;;;;;4.20;3.05;;;;;;;;;;5002092;28;93108;-66
2024/01/02 13:29:50;;;;;;;6.72;3.63;;;;;;;;;;4999809;28;92858;-67
2024/01/02 13:32:18;;;;;;;1.77;1.50;;;;;;;;;;5001536;28;92511;-67
2024/01/02 13:34:45;;;;;;;0.93;0.93;;;;;;;;;;5001907;28;92398;-66
2024/01/02 13:37:22;;;;;;;1.73;1.60;;;;;;;;;;4996226;28;96881;-67
2024/01/02 13:39:49;;;;;;;7.13;1.40;;;;;;;;;;4991269;28;92416;-66
2024/01/02 13:42:25;;;;;;;2.72;1.60;;;;;;;;;;4998889;28;93132;-66
2024/01/02 13:44:53;;;;;;;3.05;2.30;;;;;;;;;;4999377;28;93756;-66
2024/01/02 13:47:27;;;;;;;1.65;1.45;;;;;;;;;;4992165;28;93468;-67
2024/01/02 13:49:54;;;;;;;1.20;1.10;;;;;;;;;;4995437;28;93194;-66
2024/01/02 13:52:24;;;;;;;1.60;1.40;;;;;;;;;;5006817;28;92499;-66
2024/01/02 13:54:53;;;;;;;1.60;1.48;;;;;;;;;;4999244;28;93148;-66
2024/01/02 13:57:26;;;;;;;2.28;1.80;;;;;;;;;;5000084;28;95872;-67
2024/01/02 13:59:52;;;;;;;1.90;1.70;;;;;;;;;;4993624;28;92487;-66
2024/01/02 14:02:27;;;;;;;2.83;1.80;;;;;;;;;;4997104;28;95924;-66
2024/01/02 14:04:59;;;;;;;4.03;1.00;;;;;;;;;;4999545;28;93368;-66
2024/01/02 14:07:26;;;;;;;1.40;1.30;;;;;;;;;;5005502;28;92511;-66
2024/01/02 14:09:52;;;;;;;1.73;1.63;;;;;;;;;;5002752;28;93405;-67
2024/01/02 14:12:18;;;;;;;1.33;1.23;;;;;;;;;;4998104;28;92473;-67
2024/01/02 14:14:47;;;;;;;1.40;1.25;;;;;;;;;;4999635;28;93188;-67
2024/01/02 14:17:37;;;;;;;1.60;1.50;;;;;;;;;;4998005;28;93546;-66
2024/01/02 14:20:04;;;;;;;;;;;;;;;;;;4990196;28;91869;-66
2024/01/02 14:22:33;;;;;;;1.25;1.25;;;;;;;;;;5001121;28;122229;-67
2024/01/02 14:25:18;;;;;;;1.27;1.20;;;;;;;;;;5000421;28;93429;-66
2024/01/02 14:27:54;;;;;;;1.40;1.30;;;;;;;;;;4999351;28;94937;-67
2024/01/02 14:30:23;;;;;;;1.23;1.20;;;;;;;;;;5000319;28;94553;-66
2024/01/02 14:32:50;;;;;;;1.95;1.10;;;;;;;;;;5001498;28;92382;-65
2024/01/02 14:35:19;;;;;;;4.35;1.75;;;;;;;;;;5004630;28;92897;-66
2024/01/02 14:37:51;;;;;;;1.75;1.30;;;;;;;;;;4996784;28;93496;-66
2024/01/02 14:40:26;;;;;;;6.45;2.00;;;;;;;;;;4997754;28;92535;-66
2024/01/02 14:42:52;;;;;;;6.55;3.58;;;;;;;;;;4995864;28;93480;-66
2024/01/02 14:45:19;;;;;;;14.50;7.05;;;;;;;;;;4995908;28;92682;-67